createdAt,value
2022-12-29T00:00:39.717Z,2.10
2022-12-29T00:10:43.991Z,2.47
2022-12-29T00:21:04.397Z,2.75
2022-12-29T00:41:51.470Z,2.25
2022-12-29T00:51:56.786Z,2.85
2022-12-29T01:02:00.128Z,3.10
2022-12-29T01:12:05.260Z,2.75
2022-12-29T01:22:08.589Z,2.70
2022-12-29T01:32:12.698Z,2.33
2022-12-29T01:42:19.446Z,2.28
2022-12-29T01:52:26.179Z,2.17
2022-12-29T02:02:33.192Z,2.10
2022-12-29T02:12:38.643Z,1.92
2022-12-29T02:22:52.627Z,1.67
2022-12-29T02:33:02.374Z,1.88
2022-12-29T02:43:13.599Z,1.20
2022-12-29T02:53:41.013Z,1.50
2022-12-29T03:03:55.500Z,1.35
2022-12-29T03:14:25.248Z,1.35
2022-12-29T03:24:31.324Z,1.17
2022-12-29T03:34:36.922Z,1.00
2022-12-29T03:44:42.081Z,0.90
2022-12-29T03:54:46.305Z,0.82
2022-12-29T04:04:49.052Z,0.90
2022-12-29T04:14:53.168Z,1.00
2022-12-29T04:24:56.728Z,0.93
2022-12-29T04:35:01.148Z,1.30
2022-12-29T04:45:04.085Z,1.20
2022-12-29T04:55:09.339Z,1.42
2022-12-29T05:05:12.519Z,0.90
2022-12-29T05:15:16.657Z,1.10
2022-12-29T05:25:19.495Z,1.10
2022-12-29T05:35:23.519Z,1.05
2022-12-29T05:45:26.215Z,0.82
2022-12-29T05:55:30.278Z,0.70
2022-12-29T06:05:32.998Z,1.23
2022-12-29T06:15:37.908Z,0.63
2022-12-29T06:25:40.894Z,1.00
2022-12-29T06:35:47.277Z,1.00
2022-12-29T06:45:50.033Z,0.93
2022-12-29T06:55:54.260Z,0.70
2022-12-29T07:05:59.214Z,0.70
2022-12-29T07:16:07.405Z,0.70
2022-12-29T07:26:13.310Z,1.10
2022-12-29T07:36:18.376Z,1.23
2022-12-29T07:46:55.674Z,0.65
2022-12-29T07:56:45.290Z,1.00
2022-12-29T08:06:48.171Z,1.48
2022-12-29T08:16:52.253Z,0.73
2022-12-29T08:26:55.052Z,1.77
2022-12-29T08:36:59.216Z,1.08
2022-12-29T08:47:01.944Z,1.40
2022-12-29T08:57:06.080Z,1.02
2022-12-29T09:07:08.843Z,1.08
2022-12-29T09:17:30.506Z,1.50
2022-12-29T09:27:33.260Z,2.15
2022-12-29T09:37:37.650Z,0.90
2022-12-29T09:47:40.707Z,1.05
2022-12-29T09:57:49.095Z,1.05
2022-12-29T10:07:57.511Z,0.82
2022-12-29T10:18:13.801Z,1.02
2022-12-29T10:28:22.335Z,0.93
2022-12-29T10:38:31.391Z,1.80
2022-12-29T10:48:36.567Z,1.05
2022-12-29T10:58:46.729Z,1.15
2022-12-29T11:08:57.441Z,1.42
2022-12-29T11:19:02.287Z,1.42
2022-12-29T11:29:19.169Z,0.75
2022-12-29T11:39:36.065Z,1.13
2022-12-29T11:49:40.051Z,1.15
2022-12-29T11:59:45.706Z,1.00
2022-12-29T12:09:59.014Z,1.05
2022-12-29T12:20:18.801Z,1.00
2022-12-29T12:30:23.473Z,0.90
2022-12-29T12:40:56.319Z,0.95
2022-12-29T12:51:10.694Z,2.42
2022-12-29T13:01:26.941Z,2.53
2022-12-29T13:11:49.765Z,1.67
2022-12-29T13:22:06.707Z,1.88
2022-12-29T13:32:24.237Z,2.30
2022-12-29T13:42:28.436Z,2.20
2022-12-29T13:52:38.921Z,1.70
2022-12-29T14:12:52.322Z,2.20
2022-12-29T14:23:00.694Z,1.33
2022-12-29T14:33:07.027Z,1.45
2022-12-29T14:43:16.248Z,1.70
2022-12-29T14:53:47.507Z,2.15
2022-12-29T15:03:51.984Z,1.53
2022-12-29T15:13:56.028Z,1.27
2022-12-29T15:23:59.156Z,1.52
2022-12-29T15:34:13.650Z,1.20
2022-12-29T15:44:22.259Z,1.70
2022-12-29T15:54:28.661Z,1.48
2022-12-29T16:04:48.489Z,1.80
2022-12-29T16:15:00.744Z,2.53
2022-12-29T16:25:06.018Z,2.20
2022-12-29T16:35:18.664Z,2.63
2022-12-29T16:46:08.372Z,1.38
2022-12-29T16:56:19.194Z,2.43
2022-12-29T17:06:23.660Z,2.42
2022-12-29T17:16:27.928Z,2.42
2022-12-29T17:26:30.711Z,1.95
2022-12-29T17:36:34.814Z,1.98
2022-12-29T17:46:37.597Z,1.20
2022-12-29T17:56:41.665Z,1.17
2022-12-29T18:06:44.741Z,0.70
2022-12-29T18:16:50.440Z,0.63
2022-12-29T18:26:53.145Z,1.25
2022-12-29T18:36:58.786Z,1.73
2022-12-29T18:47:02.324Z,1.10
2022-12-29T18:57:06.593Z,1.10
2022-12-29T19:07:09.523Z,2.38
2022-12-29T19:17:14.397Z,2.45
2022-12-29T19:27:17.074Z,2.30
2022-12-29T19:37:21.245Z,2.20
2022-12-29T19:47:28.489Z,1.90
2022-12-29T19:57:35.901Z,2.15
2022-12-29T20:07:38.964Z,2.03
2022-12-29T20:18:12.455Z,2.42
2022-12-29T20:28:06.465Z,1.92
2022-12-29T20:38:10.491Z,2.50
2022-12-29T20:48:13.388Z,2.17
2022-12-29T20:58:25.413Z,2.22
2022-12-29T21:08:30.133Z,1.88
2022-12-29T21:18:35.480Z,2.50
2022-12-29T21:28:40.071Z,1.92
2022-12-29T21:38:44.394Z,1.42
2022-12-29T21:48:48.653Z,2.72
2022-12-29T21:59:10.752Z,1.77
2022-12-29T22:09:31.054Z,1.50
2022-12-29T22:19:35.300Z,1.67
2022-12-29T22:29:38.260Z,1.77
2022-12-29T22:39:43.546Z,1.92
2022-12-29T22:49:48.525Z,1.67
2022-12-29T22:59:53.488Z,1.70
2022-12-29T23:09:56.245Z,1.83
2022-12-29T23:20:00.927Z,2.03
2022-12-29T23:30:03.882Z,2.40
2022-12-29T23:40:09.333Z,1.70
2022-12-29T23:50:12.076Z,2.22
